sensor_id;sensor_type;location;lat;lon;timestamp;pressure;altitude;pressure_sealevel;temperature
40199;BMP280;25906;43.536;26.068;2022-11-15T00:01:16;99343.66;;;10.48
40199;BMP280;25906;43.536;26.068;2022-11-15T00:04:02;99355.16;;;10.56
40199;BMP280;25906;43.536;26.068;2022-11-15T00:06:48;99357.22;;;10.73
40199;BMP280;25906;43.536;26.068;2022-11-15T00:09:33;99359.38;;;10.74
40199;BMP280;25906;43.536;26.068;2022-11-15T00:12:19;99355.22;;;10.42
40199;BMP280;25906;43.536;26.068;2022-11-15T00:15:04;99347.84;;;10.35
40199;BMP280;25906;43.536;26.068;2022-11-15T00:17:50;99350.34;;;10.40
40199;BMP280;25906;43.536;26.068;2022-11-15T00:20:35;99350.25;;;10.31
40199;BMP280;25906;43.536;26.068;2022-11-15T00:23:21;99345.66;;;10.41
40199;BMP280;25906;43.536;26.068;2022-11-15T00:26:07;99339.06;;;10.58
40199;BMP280;25906;43.536;26.068;2022-11-15T00:28:55;99340.16;;;10.24
40199;BMP280;25906;43.536;26.068;2022-11-15T00:31:41;99342.28;;;10.25
40199;BMP280;25906;43.536;26.068;2022-11-15T00:34:26;99331.22;;;9.99
40199;BMP280;25906;43.536;26.068;2022-11-15T00:37:12;99330.13;;;10.09
40199;BMP280;25906;43.536;26.068;2022-11-15T00:39:57;99327.94;;;10.47
40199;BMP280;25906;43.536;26.068;2022-11-15T00:42:42;99331.00;;;10.51
40199;BMP280;25906;43.536;26.068;2022-11-15T00:45:28;99333.50;;;10.17
40199;BMP280;25906;43.536;26.068;2022-11-15T00:48:13;99323.94;;;9.70
40199;BMP280;25906;43.536;26.068;2022-11-15T00:50:58;99328.75;;;9.79
40199;BMP280;25906;43.536;26.068;2022-11-15T00:53:44;99324.25;;;9.81
40199;BMP280;25906;43.536;26.068;2022-11-15T00:56:29;99311.75;;;9.93
40199;BMP280;25906;43.536;26.068;2022-11-15T00:59:15;99315.34;;;10.03
40199;BMP280;25906;43.536;26.068;2022-11-15T01:02:00;99318.94;;;10.05
40199;BMP280;25906;43.536;26.068;2022-11-15T01:04:46;99329.97;;;9.93
40199;BMP280;25906;43.536;26.068;2022-11-15T01:07:31;99320.75;;;10.10
40199;BMP280;25906;43.536;26.068;2022-11-15T01:10:17;99325.28;;;9.93
40199;BMP280;25906;43.536;26.068;2022-11-15T01:13:02;99318.56;;;10.09
40199;BMP280;25906;43.536;26.068;2022-11-15T01:15:47;99325.63;;;9.97
40199;BMP280;25906;43.536;26.068;2022-11-15T01:18:33;99309.66;;;9.77
40199;BMP280;25906;43.536;26.068;2022-11-15T01:21:19;99306.59;;;9.65
40199;BMP280;25906;43.536;26.068;2022-11-15T01:24:05;99302.50;;;9.49
40199;BMP280;25906;43.536;26.068;2022-11-15T01:26:50;99301.16;;;9.80
40199;BMP280;25906;43.536;26.068;2022-11-15T01:29:36;99299.34;;;9.90
40199;BMP280;25906;43.536;26.068;2022-11-15T01:32:21;99305.00;;;9.70
40199;BMP280;25906;43.536;26.068;2022-11-15T01:35:07;99305.88;;;9.72
40199;BMP280;25906;43.536;26.068;2022-11-15T01:37:52;99302.09;;;9.75
40199;BMP280;25906;43.536;26.068;2022-11-15T01:40:38;99295.63;;;10.17
40199;BMP280;25906;43.536;26.068;2022-11-15T01:43:30;99294.06;;;9.92
40199;BMP280;25906;43.536;26.068;2022-11-15T01:46:29;99298.41;;;10.02
40199;BMP280;25906;43.536;26.068;2022-11-15T01:49:18;99304.13;;;10.14
40199;BMP280;25906;43.536;26.068;2022-11-15T01:52:08;99300.00;;;9.98
40199;BMP280;25906;43.536;26.068;2022-11-15T01:55:14;99290.78;;;10.08
40199;BMP280;25906;43.536;26.068;2022-11-15T01:58:03;99293.91;;;9.98
40199;BMP280;25906;43.536;26.068;2022-11-15T02:00:50;99290.78;;;10.08
40199;BMP280;25906;43.536;26.068;2022-11-15T02:03:38;99293.56;;;9.94
40199;BMP280;25906;43.536;26.068;2022-11-15T02:06:25;99296.09;;;9.84
40199;BMP280;25906;43.536;26.068;2022-11-15T02:09:11;99292.50;;;9.89
40199;BMP280;25906;43.536;26.068;2022-11-15T02:11:58;99288.00;;;9.77
40199;BMP280;25906;43.536;26.068;2022-11-15T02:14:48;99280.03;;;9.94
40199;BMP280;25906;43.536;26.068;2022-11-15T02:17:58;99284.03;;;9.78
40199;BMP280;25906;43.536;26.068;2022-11-15T02:33:57;99271.09;;;9.76
40199;BMP280;25906;43.536;26.068;2022-11-15T02:36:49;99265.72;;;9.69
40199;BMP280;25906;43.536;26.068;2022-11-15T02:42:26;99267.06;;;9.85
40199;BMP280;25906;43.536;26.068;2022-11-15T02:45:36;99265.63;;;9.91
40199;BMP280;25906;43.536;26.068;2022-11-15T02:48:24;99257.53;;;9.84
40199;BMP280;25906;43.536;26.068;2022-11-15T02:51:11;99257.72;;;9.78
40199;BMP280;25906;43.536;26.068;2022-11-15T02:53:57;99259.50;;;9.91
40199;BMP280;25906;43.536;26.068;2022-11-15T02:56:45;99253.91;;;9.89
40199;BMP280;25906;43.536;26.068;2022-11-15T02:59:47;99254.00;;;9.66
40199;BMP280;25906;43.536;26.068;2022-11-15T03:03:10;99257.00;;;9.85
40199;BMP280;25906;43.536;26.068;2022-11-15T03:06:04;99250.03;;;9.60
40199;BMP280;25906;43.536;26.068;2022-11-15T03:09:08;99255.06;;;9.63
40199;BMP280;25906;43.536;26.068;2022-11-15T03:12:05;99251.94;;;9.89
40199;BMP280;25906;43.536;26.068;2022-11-15T03:15:06;99256.78;;;9.91
40199;BMP280;25906;43.536;26.068;2022-11-15T03:17:59;99248.72;;;9.83
40199;BMP280;25906;43.536;26.068;2022-11-15T03:20:46;99237.94;;;9.76
40199;BMP280;25906;43.536;26.068;2022-11-15T03:23:33;99246.66;;;9.98
40199;BMP280;25906;43.536;26.068;2022-11-15T03:26:21;99244.63;;;9.60
40199;BMP280;25906;43.536;26.068;2022-11-15T03:29:16;99233.59;;;9.73
40199;BMP280;25906;43.536;26.068;2022-11-15T03:32:30;99239.00;;;10.12
40199;BMP280;25906;43.536;26.068;2022-11-15T03:35:18;99234.50;;;10.14
40199;BMP280;25906;43.536;26.068;2022-11-15T03:41:10;99228.59;;;9.62
40199;BMP280;25906;43.536;26.068;2022-11-15T03:48:01;99228.16;;;9.88
40199;BMP280;25906;43.536;26.068;2022-11-15T03:50:48;99225.97;;;9.86
40199;BMP280;25906;43.536;26.068;2022-11-15T03:53:33;99225.63;;;9.21
40199;BMP280;25906;43.536;26.068;2022-11-15T03:56:19;99220.41;;;9.30
40199;BMP280;25906;43.536;26.068;2022-11-15T03:59:05;99213.84;;;9.55
40199;BMP280;25906;43.536;26.068;2022-11-15T04:01:50;99218.03;;;9.88
40199;BMP280;25906;43.536;26.068;2022-11-15T04:04:36;99218.88;;;9.98
40199;BMP280;25906;43.536;26.068;2022-11-15T04:07:21;99213.09;;;9.70
40199;BMP280;25906;43.536;26.068;2022-11-15T04:10:09;99203.00;;;9.63
40199;BMP280;25906;43.536;26.068;2022-11-15T04:12:55;99212.94;;;9.60
40199;BMP280;25906;43.536;26.068;2022-11-15T04:15:40;99203.19;;;9.57
40199;BMP280;25906;43.536;26.068;2022-11-15T04:18:26;99201.53;;;9.69
40199;BMP280;25906;43.536;26.068;2022-11-15T04:21:11;99207.56;;;9.85
40199;BMP280;25906;43.536;26.068;2022-11-15T04:24:15;99206.31;;;9.86
40199;BMP280;25906;43.536;26.068;2022-11-15T04:27:01;99205.81;;;9.80
40199;BMP280;25906;43.536;26.068;2022-11-15T04:29:46;99201.88;;;9.73
40199;BMP280;25906;43.536;26.068;2022-11-15T04:32:31;99202.28;;;9.62
40199;BMP280;25906;43.536;26.068;2022-11-15T04:35:17;99206.00;;;9.74
40199;BMP280;25906;43.536;26.068;2022-11-15T04:38:03;99209.84;;;9.64
40199;BMP280;25906;43.536;26.068;2022-11-15T04:40:49;99204.78;;;9.68
40199;BMP280;25906;43.536;26.068;2022-11-15T04:43:34;99205.22;;;9.89
40199;BMP280;25906;43.536;26.068;2022-11-15T04:46:20;99203.91;;;9.58
40199;BMP280;25906;43.536;26.068;2022-11-15T04:49:05;99187.97;;;9.23
40199;BMP280;25906;43.536;26.068;2022-11-15T04:51:51;99192.47;;;9.20
40199;BMP280;25906;43.536;26.068;2022-11-15T04:54:36;99196.00;;;9.52
40199;BMP280;25906;43.536;26.068;2022-11-15T04:57:22;99197.50;;;9.31
40199;BMP280;25906;43.536;26.068;2022-11-15T05:00:10;99201.72;;;8.95
40199;BMP280;25906;43.536;26.068;2022-11-15T05:02:56;99192.69;;;9.07
40199;BMP280;25906;43.536;26.068;2022-11-15T05:06:01;99195.69;;;9.49
40199;BMP280;25906;43.536;26.068;2022-11-15T05:08:46;99203.19;;;9.57
40199;BMP280;25906;43.536;26.068;2022-11-15T05:11:31;99194.75;;;9.53
40199;BMP280;25906;43.536;26.068;2022-11-15T05:14:17;99189.84;;;9.59
40199;BMP280;25906;43.536;26.068;2022-11-15T05:17:02;99195.66;;;9.56
40199;BMP280;25906;43.536;26.068;2022-11-15T05:19:48;99193.16;;;9.36
40199;BMP280;25906;43.536;26.068;2022-11-15T05:22:33;99194.34;;;9.57
40199;BMP280;25906;43.536;26.068;2022-11-15T05:25:18;99192.19;;;9.63
40199;BMP280;25906;43.536;26.068;2022-11-15T05:28:04;99194.41;;;9.42
40199;BMP280;25906;43.536;26.068;2022-11-15T05:30:49;99189.19;;;9.37
40199;BMP280;25906;43.536;26.068;2022-11-15T05:33:39;99200.44;;;9.11
40199;BMP280;25906;43.536;26.068;2022-11-15T05:36:36;99200.81;;;8.85
40199;BMP280;25906;43.536;26.068;2022-11-15T05:39:22;99206.03;;;8.98
40199;BMP280;25906;43.536;26.068;2022-11-15T05:42:10;99214.50;;;9.02
40199;BMP280;25906;43.536;26.068;2022-11-15T05:44:56;99206.41;;;8.72
40199;BMP280;25906;43.536;26.068;2022-11-15T05:47:44;99210.38;;;8.86
40199;BMP280;25906;43.536;26.068;2022-11-15T05:50:30;99208.91;;;8.93
40199;BMP280;25906;43.536;26.068;2022-11-15T05:53:16;99203.16;;;8.89
40199;BMP280;25906;43.536;26.068;2022-11-15T05:56:04;99204.97;;;8.86
40199;BMP280;25906;43.536;26.068;2022-11-15T05:58:53;99202.28;;;8.79
40199;BMP280;25906;43.536;26.068;2022-11-15T06:01:40;99197.59;;;8.79
40199;BMP280;25906;43.536;26.068;2022-11-15T06:04:25;99204.25;;;8.71
40199;BMP280;25906;43.536;26.068;2022-11-15T06:07:11;99198.13;;;8.78
40199;BMP280;25906;43.536;26.068;2022-11-15T06:09:56;99200.28;;;8.57
40199;BMP280;25906;43.536;26.068;2022-11-15T06:12:42;99208.38;;;8.79
40199;BMP280;25906;43.536;26.068;2022-11-15T06:15:27;99204.91;;;9.23
40199;BMP280;25906;43.536;26.068;2022-11-15T06:18:12;99213.03;;;9.16
40199;BMP280;25906;43.536;26.068;2022-11-15T06:20:59;99202.91;;;9.39
40199;BMP280;25906;43.536;26.068;2022-11-15T06:23:44;99211.34;;;9.28
40199;BMP280;25906;43.536;26.068;2022-11-15T06:26:30;99209.59;;;9.30
40199;BMP280;25906;43.536;26.068;2022-11-15T06:29:15;99210.78;;;9.51
40199;BMP280;25906;43.536;26.068;2022-11-15T06:32:01;99214.94;;;9.45
40199;BMP280;25906;43.536;26.068;2022-11-15T06:34:46;99207.22;;;9.34
40199;BMP280;25906;43.536;26.068;2022-11-15T06:37:33;99219.63;;;9.45
40199;BMP280;25906;43.536;26.068;2022-11-15T06:40:18;99231.13;;;9.52
40199;BMP280;25906;43.536;26.068;2022-11-15T06:43:04;99215.00;;;9.30
40199;BMP280;25906;43.536;26.068;2022-11-15T06:45:50;99221.28;;;9.25
40199;BMP280;25906;43.536;26.068;2022-11-15T06:48:35;99217.06;;;9.61
40199;BMP280;25906;43.536;26.068;2022-11-15T06:51:23;99214.28;;;9.22
40199;BMP280;25906;43.536;26.068;2022-11-15T06:54:09;99216.13;;;8.98
40199;BMP280;25906;43.536;26.068;2022-11-15T06:56:54;99218.97;;;9.22
40199;BMP280;25906;43.536;26.068;2022-11-15T06:59:40;99210.63;;;9.35
40199;BMP280;25906;43.536;26.068;2022-11-15T07:02:25;99206.88;;;9.30
40199;BMP280;25906;43.536;26.068;2022-11-15T07:05:11;99209.63;;;9.08
40199;BMP280;25906;43.536;26.068;2022-11-15T07:07:58;99210.16;;;9.06
40199;BMP280;25906;43.536;26.068;2022-11-15T07:10:44;99206.88;;;9.30
40199;BMP280;25906;43.536;26.068;2022-11-15T07:13:30;99198.53;;;9.43
40199;BMP280;25906;43.536;26.068;2022-11-15T07:16:19;99207.03;;;9.47
40199;BMP280;25906;43.536;26.068;2022-11-15T07:19:04;99208.16;;;9.29
40199;BMP280;25906;43.536;26.068;2022-11-15T07:21:50;99200.78;;;9.22
40199;BMP280;25906;43.536;26.068;2022-11-15T07:24:35;99203.44;;;9.37
40199;BMP280;25906;43.536;26.068;2022-11-15T07:27:20;99198.66;;;9.67
40199;BMP280;25906;43.536;26.068;2022-11-15T07:30:06;99204.97;;;9.70
40199;BMP280;25906;43.536;26.068;2022-11-15T07:32:55;99200.72;;;9.45
40199;BMP280;25906;43.536;26.068;2022-11-15T07:35:40;99206.47;;;9.49
40199;BMP280;25906;43.536;26.068;2022-11-15T07:38:28;99201.94;;;9.51
40199;BMP280;25906;43.536;26.068;2022-11-15T07:41:14;99196.63;;;9.21
40199;BMP280;25906;43.536;26.068;2022-11-15T07:43:59;99192.44;;;9.43
40199;BMP280;25906;43.536;26.068;2022-11-15T07:46:45;99194.69;;;9.68
40199;BMP280;25906;43.536;26.068;2022-11-15T07:49:31;99199.38;;;9.68
40199;BMP280;25906;43.536;26.068;2022-11-15T07:52:17;99194.69;;;9.68
40199;BMP280;25906;43.536;26.068;2022-11-15T07:55:02;99196.03;;;9.45
40199;BMP280;25906;43.536;26.068;2022-11-15T07:57:48;99196.91;;;9.55
40199;BMP280;25906;43.536;26.068;2022-11-15T08:00:34;99194.06;;;9.85
40199;BMP280;25906;43.536;26.068;2022-11-15T08:03:20;99195.88;;;9.82
40199;BMP280;25906;43.536;26.068;2022-11-15T08:06:05;99194.47;;;9.74
40199;BMP280;25906;43.536;26.068;2022-11-15T08:08:51;99202.59;;;9.74
40199;BMP280;25906;43.536;26.068;2022-11-15T08:11:36;99196.28;;;9.71
40199;BMP280;25906;43.536;26.068;2022-11-15T08:14:21;99194.66;;;10.07
40199;BMP280;25906;43.536;26.068;2022-11-15T08:17:07;99197.66;;;10.19
40199;BMP280;25906;43.536;26.068;2022-11-15T08:19:52;99191.00;;;10.20
40199;BMP280;25906;43.536;26.068;2022-11-15T08:22:38;99190.06;;;10.25
40199;BMP280;25906;43.536;26.068;2022-11-15T08:25:24;99191.25;;;10.55
40199;BMP280;25906;43.536;26.068;2022-11-15T08:28:16;99190.56;;;10.55
40199;BMP280;25906;43.536;26.068;2022-11-15T08:31:02;99189.38;;;10.65
40199;BMP280;25906;43.536;26.068;2022-11-15T08:33:48;99191.59;;;10.59
40199;BMP280;25906;43.536;26.068;2022-11-15T08:36:33;99182.00;;;10.83
40199;BMP280;25906;43.536;26.068;2022-11-15T08:39:18;99182.88;;;10.85
40199;BMP280;25906;43.536;26.068;2022-11-15T08:42:04;99185.50;;;10.76
40199;BMP280;25906;43.536;26.068;2022-11-15T08:44:49;99175.41;;;10.76
40199;BMP280;25906;43.536;26.068;2022-11-15T08:47:35;99167.28;;;10.76
40199;BMP280;25906;43.536;26.068;2022-11-15T08:50:21;99159.25;;;10.61
40199;BMP280;25906;43.536;26.068;2022-11-15T08:53:07;99157.31;;;10.38
40199;BMP280;25906;43.536;26.068;2022-11-15T08:55:53;99161.44;;;10.63
40199;BMP280;25906;43.536;26.068;2022-11-15T08:58:39;99155.53;;;10.57
40199;BMP280;25906;43.536;26.068;2022-11-15T09:01:25;99155.78;;;10.85
40199;BMP280;25906;43.536;26.068;2022-11-15T09:04:10;99148.53;;;10.88
40199;BMP280;25906;43.536;26.068;2022-11-15T09:06:56;99145.22;;;10.97
40199;BMP280;25906;43.536;26.068;2022-11-15T09:09:41;99147.75;;;10.95
40199;BMP280;25906;43.536;26.068;2022-11-15T09:12:26;99144.16;;;10.92
40199;BMP280;25906;43.536;26.068;2022-11-15T09:15:12;99136.81;;;10.85
40199;BMP280;25906;43.536;26.068;2022-11-15T09:17:58;99127.19;;;10.75
40199;BMP280;25906;43.536;26.068;2022-11-15T09:20:44;99133.56;;;10.87
40199;BMP280;25906;43.536;26.068;2022-11-15T09:23:30;99130.00;;;10.84
40199;BMP280;25906;43.536;26.068;2022-11-15T09:26:15;99128.09;;;10.94
40199;BMP280;25906;43.536;26.068;2022-11-15T09:29:01;99120.00;;;11.03
40199;BMP280;25906;43.536;26.068;2022-11-15T09:31:46;99116.59;;;11.20
40199;BMP280;25906;43.536;26.068;2022-11-15T09:34:32;99115.41;;;11.13
40199;BMP280;25906;43.536;26.068;2022-11-15T09:37:17;99114.44;;;10.68
40199;BMP280;25906;43.536;26.068;2022-11-15T09:40:03;99099.09;;;10.70
40199;BMP280;25906;43.536;26.068;2022-11-15T09:49:04;99093.81;;;10.89
40199;BMP280;25906;43.536;26.068;2022-11-15T09:51:51;99089.53;;;11.03
40199;BMP280;25906;43.536;26.068;2022-11-15T09:54:39;99077.56;;;11.06
40199;BMP280;25906;43.536;26.068;2022-11-15T09:57:51;99082.41;;;10.91
40199;BMP280;25906;43.536;26.068;2022-11-15T10:00:43;99074.91;;;10.65
40199;BMP280;25906;43.536;26.068;2022-11-15T10:03:34;99070.56;;;10.86
40199;BMP280;25906;43.536;26.068;2022-11-15T10:06:25;99068.50;;;10.94
40199;BMP280;25906;43.536;26.068;2022-11-15T10:09:19;99073.75;;;10.75
40199;BMP280;25906;43.536;26.068;2022-11-15T10:12:08;99068.56;;;10.87
40199;BMP280;25906;43.536;26.068;2022-11-15T10:15:09;99065.22;;;10.96
40199;BMP280;25906;43.536;26.068;2022-11-15T10:18:13;99064.06;;;10.98
40199;BMP280;25906;43.536;26.068;2022-11-15T10:21:15;99051.69;;;10.79
40199;BMP280;25906;43.536;26.068;2022-11-15T10:24:10;99050.63;;;10.91
40199;BMP280;25906;43.536;26.068;2022-11-15T10:26:56;99056.53;;;10.80
40199;BMP280;25906;43.536;26.068;2022-11-15T10:29:47;99041.78;;;11.07
40199;BMP280;25906;43.536;26.068;2022-11-15T10:32:34;99043.50;;;11.12
40199;BMP280;25906;43.536;26.068;2022-11-15T10:35:27;99039.91;;;11.27
40199;BMP280;25906;43.536;26.068;2022-11-15T10:38:13;99037.44;;;11.21
40199;BMP280;25906;43.536;26.068;2022-11-15T10:41:07;99033.00;;;10.99
40199;BMP280;25906;43.536;26.068;2022-11-15T10:44:29;99025.16;;;10.94
40199;BMP280;25906;43.536;26.068;2022-11-15T10:47:24;99025.38;;;11.32
40199;BMP280;25906;43.536;26.068;2022-11-15T10:50:28;99016.84;;;11.09
40199;BMP280;25906;43.536;26.068;2022-11-15T10:56:13;99016.25;;;11.37
40199;BMP280;25906;43.536;26.068;2022-11-15T10:59:02;99011.34;;;11.52
40199;BMP280;25906;43.536;26.068;2022-11-15T11:01:48;99011.00;;;11.39
40199;BMP280;25906;43.536;26.068;2022-11-15T11:04:49;99003.13;;;11.33
40199;BMP280;25906;43.536;26.068;2022-11-15T11:07:35;98990.31;;;11.34
40199;BMP280;25906;43.536;26.068;2022-11-15T11:10:21;98993.47;;;11.40
40199;BMP280;25906;43.536;26.068;2022-11-15T11:13:13;98990.88;;;11.42
40199;BMP280;25906;43.536;26.068;2022-11-15T11:20:10;98979.41;;;11.60
40199;BMP280;25906;43.536;26.068;2022-11-15T11:22:46;98974.94;;;11.45
40199;BMP280;25906;43.536;26.068;2022-11-15T11:29:29;98968.41;;;11.58
40199;BMP280;25906;43.536;26.068;2022-11-15T11:32:02;98961.41;;;11.64
40199;BMP280;25906;43.536;26.068;2022-11-15T11:35:23;98956.28;;;11.59
40199;BMP280;25906;43.536;26.068;2022-11-15T11:41:48;98952.09;;;11.48
40199;BMP280;25906;43.536;26.068;2022-11-15T11:47:26;98940.41;;;11.46
40199;BMP280;25906;43.536;26.068;2022-11-15T11:50:19;98938.13;;;11.52
40199;BMP280;25906;43.536;26.068;2022-11-15T11:53:13;98932.53;;;11.50
40199;BMP280;25906;43.536;26.068;2022-11-15T11:56:13;98936.16;;;11.71
40199;BMP280;25906;43.536;26.068;2022-11-15T12:02:31;98929.44;;;11.63
40199;BMP280;25906;43.536;26.068;2022-11-15T12:06:15;98921.31;;;11.72
40199;BMP280;25906;43.536;26.068;2022-11-15T12:08:41;98924.91;;;11.75
40199;BMP280;25906;43.536;26.068;2022-11-15T12:11:37;98917.06;;;11.69
40199;BMP280;25906;43.536;26.068;2022-11-15T12:17:12;98913.13;;;11.53
40199;BMP280;25906;43.536;26.068;2022-11-15T12:20:25;98913.56;;;11.59
40199;BMP280;25906;43.536;26.068;2022-11-15T12:23:13;98911.47;;;11.67
40199;BMP280;25906;43.536;26.068;2022-11-15T12:26:04;98912.78;;;11.76
40199;BMP280;25906;43.536;26.068;2022-11-15T12:28:58;98908.59;;;11.56
40199;BMP280;25906;43.536;26.068;2022-11-15T12:31:48;98904.91;;;11.70
40199;BMP280;25906;43.536;26.068;2022-11-15T12:34:46;98902.19;;;11.80
40199;BMP280;25906;43.536;26.068;2022-11-15T12:40:34;98896.63;;;11.96
40199;BMP280;25906;43.536;26.068;2022-11-15T12:43:40;98898.25;;;11.99
40199;BMP280;25906;43.536;26.068;2022-11-15T12:52:08;98896.50;;;11.85
40199;BMP280;25906;43.536;26.068;2022-11-15T12:54:56;98888.50;;;11.96
40199;BMP280;25906;43.536;26.068;2022-11-15T12:57:42;98889.94;;;12.07
40199;BMP280;25906;43.536;26.068;2022-11-15T13:03:18;98891.34;;;11.70
40199;BMP280;25906;43.536;26.068;2022-11-15T13:06:06;98882.34;;;11.77
40199;BMP280;25906;43.536;26.068;2022-11-15T13:08:52;98875.06;;;11.80
40199;BMP280;25906;43.536;26.068;2022-11-15T13:11:49;98869.34;;;11.57
40199;BMP280;25906;43.536;26.068;2022-11-15T13:14:58;98866.50;;;11.64
40199;BMP280;25906;43.536;26.068;2022-11-15T13:17:55;98863.78;;;11.64
40199;BMP280;25906;43.536;26.068;2022-11-15T13:20:44;98862.69;;;11.77
40199;BMP280;25906;43.536;26.068;2022-11-15T13:23:30;98853.47;;;11.44
40199;BMP280;25906;43.536;26.068;2022-11-15T13:26:16;98861.59;;;11.35
40199;BMP280;25906;43.536;26.068;2022-11-15T13:29:01;98850.34;;;11.47
40199;BMP280;25906;43.536;26.068;2022-11-15T13:31:47;98849.50;;;11.54
40199;BMP280;25906;43.536;26.068;2022-11-15T13:34:33;98841.66;;;11.58
40199;BMP280;25906;43.536;26.068;2022-11-15T13:40:22;98829.56;;;11.88
40199;BMP280;25906;43.536;26.068;2022-11-15T13:43:28;98836.66;;;11.83
40199;BMP280;25906;43.536;26.068;2022-11-15T13:49:09;98828.69;;;11.85
40199;BMP280;25906;43.536;26.068;2022-11-15T13:51:59;98830.56;;;11.83
40199;BMP280;25906;43.536;26.068;2022-11-15T13:54:55;98826.84;;;12.06
40199;BMP280;25906;43.536;26.068;2022-11-15T13:57:44;98823.38;;;11.96
40199;BMP280;25906;43.536;26.068;2022-11-15T14:00:37;98823.38;;;11.96
40199;BMP280;25906;43.536;26.068;2022-11-15T14:03:25;98820.25;;;11.90
40199;BMP280;25906;43.536;26.068;2022-11-15T14:06:15;98815.13;;;11.76
40199;BMP280;25906;43.536;26.068;2022-11-15T14:11:56;98803.84;;;11.70
40199;BMP280;25906;43.536;26.068;2022-11-15T14:14:46;98802.59;;;11.71
40199;BMP280;25906;43.536;26.068;2022-11-15T14:17:36;98797.16;;;11.71
40199;BMP280;25906;43.536;26.068;2022-11-15T14:23:27;98797.41;;;11.65
40199;BMP280;25906;43.536;26.068;2022-11-15T14:26:32;98788.41;;;11.53
40199;BMP280;25906;43.536;26.068;2022-11-15T14:29:28;98788.75;;;11.57
40199;BMP280;25906;43.536;26.068;2022-11-15T14:32:18;98788.59;;;11.46
40199;BMP280;25906;43.536;26.068;2022-11-15T14:35:13;98788.31;;;11.51
40199;BMP280;25906;43.536;26.068;2022-11-15T14:37:59;98782.00;;;11.58
40199;BMP280;25906;43.536;26.068;2022-11-15T14:40:44;98774.44;;;11.47
40199;BMP280;25906;43.536;26.068;2022-11-15T14:43:30;98771.88;;;11.49
40199;BMP280;25906;43.536;26.068;2022-11-15T14:46:15;98762.84;;;11.19
40199;BMP280;25906;43.536;26.068;2022-11-15T14:49:01;98764.69;;;11.16
40199;BMP280;25906;43.536;26.068;2022-11-15T14:51:46;98771.19;;;11.40
40199;BMP280;25906;43.536;26.068;2022-11-15T14:54:31;98764.59;;;11.43
40199;BMP280;25906;43.536;26.068;2022-11-15T14:57:17;98766.72;;;11.44
40199;BMP280;25906;43.536;26.068;2022-11-15T15:00:03;98773.03;;;11.28
40199;BMP280;25906;43.536;26.068;2022-11-15T15:02:52;98765.13;;;11.13
40199;BMP280;25906;43.536;26.068;2022-11-15T15:05:42;98772.72;;;11.33
40199;BMP280;25906;43.536;26.068;2022-11-15T15:08:28;98773.59;;;11.26
40199;BMP280;25906;43.536;26.068;2022-11-15T15:11:23;98766.31;;;11.29
40199;BMP280;25906;43.536;26.068;2022-11-15T15:14:09;98767.31;;;11.43
40199;BMP280;25906;43.536;26.068;2022-11-15T15:16:54;98772.28;;;11.37
40199;BMP280;25906;43.536;26.068;2022-11-15T15:19:39;98768.44;;;11.21
40199;BMP280;25906;43.536;26.068;2022-11-15T15:22:26;98766.13;;;11.17
40199;BMP280;25906;43.536;26.068;2022-11-15T15:25:27;98770.31;;;11.28
40199;BMP280;25906;43.536;26.068;2022-11-15T15:28:13;98762.91;;;11.28
40199;BMP280;25906;43.536;26.068;2022-11-15T15:30:58;98764.47;;;11.31
40199;BMP280;25906;43.536;26.068;2022-11-15T15:33:44;98756.59;;;11.35
40199;BMP280;25906;43.536;26.068;2022-11-15T15:36:29;98751.31;;;11.18
40199;BMP280;25906;43.536;26.068;2022-11-15T15:39:15;98754.59;;;11.17
40199;BMP280;25906;43.536;26.068;2022-11-15T15:42:00;98754.72;;;11.19
40199;BMP280;25906;43.536;26.068;2022-11-15T15:44:47;98761.31;;;11.16
40199;BMP280;25906;43.536;26.068;2022-11-15T15:47:32;98743.19;;;11.09
40199;BMP280;25906;43.536;26.068;2022-11-15T15:50:28;98745.72;;;10.97
40199;BMP280;25906;43.536;26.068;2022-11-15T15:53:14;98744.63;;;11.19
40199;BMP280;25906;43.536;26.068;2022-11-15T15:56:00;98751.00;;;11.05
40199;BMP280;25906;43.536;26.068;2022-11-15T15:58:45;98739.91;;;11.20
40199;BMP280;25906;43.536;26.068;2022-11-15T16:01:31;98741.19;;;11.19
40199;BMP280;25906;43.536;26.068;2022-11-15T16:04:16;98743.03;;;11.16
40199;BMP280;25906;43.536;26.068;2022-11-15T16:07:02;98739.31;;;10.93
40199;BMP280;25906;43.536;26.068;2022-11-15T16:09:50;98737.16;;;10.92
40199;BMP280;25906;43.536;26.068;2022-11-15T16:12:47;98739.31;;;10.93
40199;BMP280;25906;43.536;26.068;2022-11-15T16:15:34;98733.72;;;10.91
40199;BMP280;25906;43.536;26.068;2022-11-15T16:18:20;98740.97;;;10.79
40199;BMP280;25906;43.536;26.068;2022-11-15T16:21:07;98739.13;;;10.82
40199;BMP280;25906;43.536;26.068;2022-11-15T16:23:53;98730.47;;;10.83
40199;BMP280;25906;43.536;26.068;2022-11-15T16:26:38;98727.97;;;10.68
40199;BMP280;25906;43.536;26.068;2022-11-15T16:29:24;98723.75;;;10.84
40199;BMP280;25906;43.536;26.068;2022-11-15T16:32:10;98724.75;;;10.89
40199;BMP280;25906;43.536;26.068;2022-11-15T16:34:55;98715.34;;;10.90
40199;BMP280;25906;43.536;26.068;2022-11-15T16:37:43;98715.78;;;10.96
40199;BMP280;25906;43.536;26.068;2022-11-15T16:40:33;98715.31;;;10.71
40199;BMP280;25906;43.536;26.068;2022-11-15T16:43:19;98711.63;;;10.85
40199;BMP280;25906;43.536;26.068;2022-11-15T16:46:13;98714.09;;;11.00
40199;BMP280;25906;43.536;26.068;2022-11-15T16:49:00;98712.34;;;11.04
40199;BMP280;25906;43.536;26.068;2022-11-15T16:51:47;98719.16;;;10.87
40199;BMP280;25906;43.536;26.068;2022-11-15T16:54:33;98721.47;;;10.99
40199;BMP280;25906;43.536;26.068;2022-11-15T16:57:18;98714.06;;;10.91
40199;BMP280;25906;43.536;26.068;2022-11-15T17:00:04;98721.03;;;10.94
40199;BMP280;25906;43.536;26.068;2022-11-15T17:02:51;98721.59;;;10.83
40199;BMP280;25906;43.536;26.068;2022-11-15T17:05:36;98717.63;;;10.93
40199;BMP280;25906;43.536;26.068;2022-11-15T17:08:22;98711.91;;;10.70
40199;BMP280;25906;43.536;26.068;2022-11-15T17:11:08;98712.78;;;10.82
40199;BMP280;25906;43.536;26.068;2022-11-15T17:13:58;98707.66;;;11.05
40199;BMP280;25906;43.536;26.068;2022-11-15T17:16:43;98704.91;;;10.77
40199;BMP280;25906;43.536;26.068;2022-11-15T17:19:29;98695.22;;;10.93